createdAt,value
2022-11-15T00:00:54.892Z,4.50
2022-11-15T00:03:27.032Z,4.40
2022-11-15T00:05:53.560Z,4.50
2022-11-15T00:08:20.381Z,4.40
2022-11-15T00:10:57.846Z,4.40
2022-11-15T00:13:24.886Z,4.30
2022-11-15T00:15:51.461Z,4.30
2022-11-15T00:18:18.727Z,4.20
2022-11-15T00:20:45.682Z,4.30
2022-11-15T00:23:12.243Z,4.40
2022-11-15T00:25:38.728Z,4.30
2022-11-15T00:28:05.154Z,4.30
2022-11-15T00:30:31.668Z,4.50
2022-11-15T00:33:02.631Z,4.40
2022-11-15T00:35:29.274Z,4.40
2022-11-15T00:37:56.115Z,4.50
2022-11-15T00:40:22.573Z,4.50
2022-11-15T00:42:49.127Z,4.50
2022-11-15T00:45:15.542Z,4.70
2022-11-15T00:47:45.853Z,4.50
2022-11-15T00:50:15.496Z,4.60
2022-11-15T00:52:42.303Z,4.50
2022-11-15T00:55:14.752Z,4.50
2022-11-15T00:57:41.167Z,4.50
2022-11-15T01:00:08.192Z,4.50
2022-11-15T01:02:35.376Z,4.30
2022-11-15T01:05:01.873Z,4.30
2022-11-15T01:07:28.396Z,4.20
2022-11-15T01:09:54.916Z,4.20
2022-11-15T01:12:21.472Z,4.20
2022-11-15T01:14:47.947Z,4.20
2022-11-15T01:17:16.318Z,4.10
2022-11-15T01:19:42.797Z,4.00
2022-11-15T01:22:09.254Z,4.00
2022-11-15T01:24:35.722Z,3.90
2022-11-15T01:27:02.174Z,4.00
2022-11-15T01:29:28.685Z,4.00
2022-11-15T01:31:56.705Z,4.00
2022-11-15T01:34:23.187Z,4.00
2022-11-15T01:36:49.607Z,3.90
2022-11-15T01:39:16.476Z,4.00
2022-11-15T01:41:43.114Z,4.00
2022-11-15T01:44:31.553Z,3.90
2022-11-15T01:47:00.215Z,4.00
2022-11-15T01:49:28.717Z,3.80
2022-11-15T01:51:56.079Z,3.90
2022-11-15T01:54:24.777Z,4.00
2022-11-15T01:56:55.811Z,3.90
2022-11-15T01:59:23.002Z,3.80
2022-11-15T02:01:49.769Z,3.90
2022-11-15T02:04:28.578Z,3.90
2022-11-15T02:06:55.080Z,4.00
2022-11-15T02:09:21.615Z,4.00
2022-11-15T02:11:49.579Z,3.90
2022-11-15T02:14:17.833Z,3.90
2022-11-15T02:17:15.050Z,3.80
2022-11-15T02:20:18.905Z,3.80
2022-11-15T02:22:52.587Z,3.70
2022-11-15T02:25:42.159Z,3.70
2022-11-15T02:28:53.606Z,3.70
2022-11-15T02:31:41.954Z,3.70
2022-11-15T02:34:35.988Z,3.70
2022-11-15T02:37:16.306Z,3.50
2022-11-15T02:39:50.006Z,3.60
2022-11-15T02:42:41.144Z,3.70
2022-11-15T02:45:14.341Z,3.70
2022-11-15T02:47:45.031Z,3.50
2022-11-15T02:50:13.882Z,3.60
2022-11-15T02:52:40.370Z,3.70
2022-11-15T02:55:27.988Z,3.50
2022-11-15T02:58:20.167Z,3.50
2022-11-15T03:01:01.592Z,3.50
2022-11-15T03:03:44.915Z,3.50
2022-11-15T03:06:26.706Z,3.50
2022-11-15T03:09:08.498Z,3.40
2022-11-15T03:11:40.690Z,3.50
2022-11-15T03:14:12.736Z,3.40
2022-11-15T03:16:52.037Z,3.50
2022-11-15T03:19:31.979Z,3.30
2022-11-15T03:22:01.696Z,3.40
2022-11-15T03:24:31.568Z,3.40
2022-11-15T03:27:00.977Z,3.30
2022-11-15T03:29:34.077Z,3.40
2022-11-15T03:32:13.525Z,3.30
2022-11-15T03:34:48.507Z,3.20
2022-11-15T03:37:17.399Z,3.30
2022-11-15T03:39:44.668Z,3.30
2022-11-15T03:42:23.434Z,3.30
2022-11-15T03:45:18.891Z,3.30
2022-11-15T03:47:48.911Z,3.20
2022-11-15T03:50:19.495Z,3.30
2022-11-15T03:52:48.133Z,3.30
2022-11-15T03:55:17.767Z,3.30
2022-11-15T03:57:44.230Z,3.30
2022-11-15T04:00:11.867Z,3.30
2022-11-15T04:02:38.499Z,3.30
2022-11-15T04:05:05.161Z,3.30
2022-11-15T04:07:31.702Z,3.30
2022-11-15T04:10:04.384Z,3.20
2022-11-15T04:12:34.384Z,3.20
2022-11-15T04:15:13.013Z,3.30
2022-11-15T04:17:44.345Z,3.30
2022-11-15T04:20:35.254Z,3.30
2022-11-15T04:23:22.544Z,3.40
2022-11-15T04:25:52.775Z,3.40
2022-11-15T04:28:19.384Z,3.30
2022-11-15T04:30:46.288Z,3.30
2022-11-15T04:33:12.886Z,3.40
2022-11-15T04:35:39.588Z,3.30
2022-11-15T04:38:08.792Z,3.30
2022-11-15T04:40:36.043Z,3.30
2022-11-15T04:43:04.159Z,3.30
2022-11-15T04:45:31.176Z,3.40
2022-11-15T04:47:57.608Z,3.30
2022-11-15T04:50:24.118Z,3.30
2022-11-15T04:52:55.078Z,3.30
2022-11-15T04:55:21.617Z,3.30
2022-11-15T04:57:48.127Z,3.30
2022-11-15T05:00:17.031Z,3.30
2022-11-15T05:03:02.097Z,3.30
2022-11-15T05:05:28.582Z,3.30
2022-11-15T05:07:55.022Z,3.30
2022-11-15T05:10:21.526Z,3.20
2022-11-15T05:12:48.182Z,3.30
2022-11-15T05:15:14.606Z,3.20
2022-11-15T05:17:41.684Z,3.20
2022-11-15T05:20:08.503Z,3.20
2022-11-15T05:22:34.935Z,3.20
2022-11-15T05:25:01.412Z,3.20
2022-11-15T05:27:27.917Z,3.30
2022-11-15T05:29:54.396Z,3.30
2022-11-15T05:32:21.536Z,3.20
2022-11-15T05:34:48.050Z,3.20
2022-11-15T05:37:15.008Z,3.20
2022-11-15T05:39:41.480Z,3.10
2022-11-15T05:42:14.551Z,3.10
2022-11-15T05:44:45.450Z,3.20
2022-11-15T05:47:15.391Z,3.10
2022-11-15T05:49:43.634Z,3.10
2022-11-15T05:52:13.979Z,3.20
2022-11-15T05:54:40.952Z,3.10
2022-11-15T05:57:07.613Z,3.10
2022-11-15T05:59:35.605Z,3.20
2022-11-15T06:02:02.153Z,3.20
2022-11-15T06:04:28.657Z,3.20
2022-11-15T06:06:55.134Z,3.10
2022-11-15T06:09:21.605Z,3.00
2022-11-15T06:11:48.812Z,3.10
2022-11-15T06:14:15.330Z,3.10
2022-11-15T06:16:41.764Z,3.10
2022-11-15T06:19:08.624Z,3.10
2022-11-15T06:21:35.054Z,3.10
2022-11-15T06:24:01.601Z,3.00
2022-11-15T06:26:28.044Z,3.10
2022-11-15T06:28:54.504Z,3.10
2022-11-15T06:31:21.048Z,3.10
2022-11-15T06:33:47.528Z,3.10
2022-11-15T06:36:18.254Z,3.20
2022-11-15T06:38:45.945Z,3.10
2022-11-15T06:41:13.798Z,3.20
2022-11-15T06:43:41.387Z,3.10
2022-11-15T06:46:08.526Z,3.20
2022-11-15T06:48:35.739Z,3.10
2022-11-15T06:51:03.400Z,3.20
2022-11-15T06:53:31.661Z,3.20
2022-11-15T06:56:02.710Z,3.30
2022-11-15T06:58:29.451Z,3.30
2022-11-15T07:01:07.796Z,3.40
2022-11-15T07:03:39.674Z,3.40
2022-11-15T07:06:07.627Z,3.40
2022-11-15T07:08:35.232Z,3.40
2022-11-15T07:11:10.999Z,3.50
2022-11-15T07:13:38.307Z,3.50
2022-11-15T07:16:07.023Z,3.60
2022-11-15T07:18:38.476Z,3.60
2022-11-15T07:21:06.305Z,3.60
2022-11-15T07:23:33.525Z,3.70
2022-11-15T07:26:00.821Z,3.70
2022-11-15T07:28:28.074Z,3.80
2022-11-15T07:30:54.861Z,3.80
2022-11-15T07:33:21.740Z,3.90
2022-11-15T07:35:51.074Z,4.00
2022-11-15T07:38:20.984Z,4.50
2022-11-15T07:40:48.128Z,4.70
2022-11-15T07:43:14.834Z,4.80
2022-11-15T07:45:43.677Z,5.60
2022-11-15T07:48:10.195Z,7.10
2022-11-15T07:50:36.687Z,8.10
2022-11-15T07:53:03.101Z,10.10
2022-11-15T07:55:30.683Z,11.50
2022-11-15T07:58:11.142Z,9.10
2022-11-15T08:00:38.776Z,8.30
2022-11-15T08:03:10.627Z,7.50
2022-11-15T08:05:38.396Z,7.10
2022-11-15T08:08:05.705Z,6.90
2022-11-15T08:10:35.260Z,6.60
2022-11-15T08:13:07.790Z,6.70
2022-11-15T08:15:35.441Z,6.70
2022-11-15T08:18:05.049Z,6.70
2022-11-15T08:20:32.478Z,6.70
2022-11-15T08:22:59.570Z,6.70
2022-11-15T08:25:27.962Z,6.70
2022-11-15T08:27:57.012Z,6.60
2022-11-15T08:30:24.191Z,6.60
2022-11-15T08:32:51.940Z,6.70
2022-11-15T08:35:18.959Z,6.80
2022-11-15T08:37:45.492Z,6.90
2022-11-15T08:40:12.291Z,6.90
2022-11-15T08:42:38.796Z,7.10
2022-11-15T08:45:05.710Z,7.20
2022-11-15T08:47:32.162Z,7.20
2022-11-15T08:49:58.652Z,7.30
2022-11-15T08:52:25.363Z,7.40
2022-11-15T08:54:51.848Z,7.60
2022-11-15T08:57:21.113Z,7.70
2022-11-15T08:59:47.553Z,7.80
2022-11-15T09:02:17.858Z,7.90
2022-11-15T09:04:44.909Z,8.00
2022-11-15T09:07:12.434Z,8.10
2022-11-15T09:09:39.385Z,8.20
2022-11-15T09:12:07.216Z,8.30
2022-11-15T09:14:33.703Z,8.50
2022-11-15T09:17:00.337Z,8.50
2022-11-15T09:19:26.763Z,8.70
2022-11-15T09:21:53.187Z,8.80
2022-11-15T09:24:19.948Z,8.90
2022-11-15T09:26:46.591Z,9.00
2022-11-15T09:29:13.340Z,9.10
2022-11-15T09:31:39.842Z,9.20
2022-11-15T09:34:06.270Z,9.20
2022-11-15T09:36:32.810Z,9.30
2022-11-15T09:38:59.552Z,9.40
2022-11-15T09:41:58.943Z,9.50
2022-11-15T09:45:10.594Z,9.60
2022-11-15T09:47:55.075Z,9.70
2022-11-15T09:50:33.491Z,9.80
2022-11-15T09:53:00.005Z,9.90
2022-11-15T09:55:46.587Z,10.00
2022-11-15T09:58:26.357Z,10.00
2022-11-15T10:00:54.451Z,10.10
2022-11-15T10:03:28.707Z,10.10
2022-11-15T10:06:01.401Z,10.20
2022-11-15T10:08:44.935Z,10.40
2022-11-15T10:14:03.460Z,10.50
2022-11-15T10:16:42.060Z,10.50
2022-11-15T10:19:34.334Z,10.70
2022-11-15T10:22:33.681Z,10.70
2022-11-15T10:25:10.447Z,10.90
2022-11-15T10:27:37.086Z,11.00
2022-11-15T10:30:07.859Z,11.00
2022-11-15T10:32:36.300Z,11.10
2022-11-15T10:35:17.795Z,11.20
2022-11-15T10:37:44.299Z,11.50
2022-11-15T10:40:20.602Z,11.50
2022-11-15T10:42:47.464Z,11.70
2022-11-15T10:45:32.058Z,11.70
2022-11-15T10:48:13.646Z,11.60
2022-11-15T10:50:50.930Z,11.70
2022-11-15T10:53:23.178Z,11.70
2022-11-15T10:55:52.170Z,12.10
2022-11-15T10:58:37.870Z,14.10
2022-11-15T11:01:14.344Z,15.80
2022-11-15T11:03:42.352Z,16.60
2022-11-15T11:06:17.529Z,18.40
2022-11-15T11:09:01.703Z,20.10
2022-11-15T11:11:47.886Z,19.60
2022-11-15T11:14:21.935Z,20.30
2022-11-15T11:16:53.645Z,21.60
2022-11-15T11:19:30.257Z,21.90
2022-11-15T11:22:10.340Z,21.80
2022-11-15T11:24:45.284Z,22.00
2022-11-15T11:27:31.231Z,22.20
2022-11-15T11:30:21.513Z,23.90
2022-11-15T11:33:01.791Z,23.10
2022-11-15T11:35:56.380Z,23.20
2022-11-15T11:38:35.583Z,24.40
2022-11-15T11:41:17.950Z,23.50
2022-11-15T11:44:27.229Z,23.90
2022-11-15T11:46:59.265Z,24.60
2022-11-15T11:49:32.059Z,24.30
2022-11-15T11:52:09.313Z,23.00
2022-11-15T11:54:49.560Z,23.20
2022-11-15T11:57:33.882Z,23.90
2022-11-15T12:00:23.607Z,24.10
2022-11-15T12:02:56.204Z,23.40
2022-11-15T12:05:37.782Z,22.20
2022-11-15T12:08:19.271Z,22.00
2022-11-15T12:10:51.525Z,20.90
2022-11-15T12:13:21.543Z,20.30
2022-11-15T12:16:10.855Z,19.00
2022-11-15T12:18:37.883Z,19.00
2022-11-15T12:21:15.366Z,19.30
2022-11-15T12:23:51.426Z,18.50
2022-11-15T12:26:22.477Z,19.00
2022-11-15T12:29:06.986Z,18.30
2022-11-15T12:31:40.991Z,18.20
2022-11-15T12:34:37.565Z,18.10
2022-11-15T12:37:38.949Z,17.90
2022-11-15T12:40:25.757Z,17.70
2022-11-15T12:43:01.153Z,18.60
2022-11-15T12:45:39.526Z,18.80
2022-11-15T12:48:18.125Z,18.20
2022-11-15T12:50:56.760Z,17.90
2022-11-15T12:53:26.197Z,18.20
2022-11-15T12:56:17.806Z,17.80
2022-11-15T12:58:55.998Z,18.10
2022-11-15T13:01:31.911Z,18.50
2022-11-15T13:04:20.439Z,17.80
2022-11-15T13:06:55.559Z,17.60
2022-11-15T13:09:37.379Z,17.60
2022-11-15T13:12:08.542Z,18.10
2022-11-15T13:14:38.022Z,17.90
2022-11-15T13:17:19.881Z,18.20
2022-11-15T13:20:08.656Z,18.30
2022-11-15T13:23:00.341Z,18.30
2022-11-15T13:25:49.006Z,18.10
2022-11-15T13:28:15.420Z,17.90
2022-11-15T13:30:47.533Z,17.60
2022-11-15T13:33:18.644Z,17.60
2022-11-15T13:35:49.718Z,17.10
2022-11-15T13:38:26.674Z,17.20
2022-11-15T13:40:54.014Z,16.90
2022-11-15T13:43:23.872Z,16.80
2022-11-15T13:46:06.481Z,16.80
2022-11-15T13:48:34.833Z,16.90
2022-11-15T13:51:05.119Z,16.90
2022-11-15T13:53:34.191Z,16.80
2022-11-15T13:56:01.031Z,16.60
2022-11-15T13:58:27.602Z,16.50
2022-11-15T14:01:03.023Z,16.10
2022-11-15T14:03:32.110Z,16.10
2022-11-15T14:06:14.114Z,15.90
2022-11-15T14:08:41.395Z,15.90
2022-11-15T14:11:19.261Z,15.70
2022-11-15T14:14:13.318Z,15.50
2022-11-15T14:16:43.214Z,15.00
2022-11-15T14:19:34.624Z,14.80
2022-11-15T14:22:16.318Z,14.70
2022-11-15T14:24:46.032Z,14.30
2022-11-15T14:27:25.499Z,14.30
2022-11-15T14:29:52.325Z,14.10
2022-11-15T14:32:22.006Z,13.90
2022-11-15T14:34:50.009Z,14.00
2022-11-15T14:37:26.134Z,13.90
2022-11-15T14:39:53.527Z,13.80
2022-11-15T14:42:21.872Z,13.60
2022-11-15T14:44:48.691Z,13.50
2022-11-15T14:47:15.176Z,13.30
2022-11-15T14:49:41.600Z,13.40
2022-11-15T14:52:32.295Z,13.20
2022-11-15T14:55:00.538Z,13.10
2022-11-15T14:57:26.992Z,12.90
2022-11-15T14:59:53.451Z,12.40
2022-11-15T15:02:22.458Z,12.40
2022-11-15T15:04:49.774Z,12.30
2022-11-15T15:07:17.062Z,12.30
2022-11-15T15:09:44.316Z,11.80
2022-11-15T15:12:16.658Z,12.10
2022-11-15T15:14:43.144Z,11.90
2022-11-15T15:17:09.627Z,11.70
2022-11-15T15:19:36.169Z,11.70
2022-11-15T15:22:02.614Z,11.60
2022-11-15T15:24:29.055Z,11.50
2022-11-15T15:26:55.554Z,11.50
2022-11-15T15:29:21.990Z,11.30
2022-11-15T15:31:48.549Z,11.10
2022-11-15T15:34:16.918Z,11.10
2022-11-15T15:36:43.565Z,10.90
2022-11-15T15:39:12.060Z,10.90
2022-11-15T15:41:38.621Z,10.80
2022-11-15T15:44:05.157Z,10.80
2022-11-15T15:46:31.669Z,10.70
2022-11-15T15:48:58.108Z,10.50
2022-11-15T15:51:24.580Z,10.50
2022-11-15T15:53:52.456Z,10.50
2022-11-15T15:56:18.907Z,10.40
2022-11-15T15:58:45.342Z,10.20
2022-11-15T16:01:11.878Z,10.10
2022-11-15T16:03:38.376Z,10.00
2022-11-15T16:06:08.590Z,10.00
2022-11-15T16:08:53.254Z,10.00
2022-11-15T16:11:21.578Z,9.80
2022-11-15T16:13:48.001Z,9.70
2022-11-15T16:16:14.928Z,9.50
2022-11-15T16:18:41.441Z,9.50
2022-11-15T16:21:08.806Z,9.50
2022-11-15T16:23:35.288Z,9.30
2022-11-15T16:26:03.960Z,9.40
2022-11-15T16:28:32.982Z,9.30
2022-11-15T16:31:09.196Z,9.30
2022-11-15T16:33:36.292Z,9.20
2022-11-15T16:36:04.064Z,9.10
2022-11-15T16:38:31.335Z,9.10
2022-11-15T16:40:58.190Z,9.00
2022-11-15T16:43:25.107Z,9.00
2022-11-15T16:45:51.864Z,9.00
2022-11-15T16:48:25.536Z,9.00
2022-11-15T16:50:57.024Z,9.00
2022-11-15T16:53:24.066Z,8.90
2022-11-15T16:55:50.556Z,8.90
2022-11-15T16:58:16.986Z,8.90
2022-11-15T17:00:43.697Z,8.80
2022-11-15T17:03:10.177Z,8.80
2022-11-15T17:05:36.624Z,8.70
2022-11-15T17:08:03.247Z,8.80
2022-11-15T17:10:30.101Z,8.70
2022-11-15T17:12:56.618Z,8.70
2022-11-15T17:15:24.387Z,8.70
2022-11-15T17:17:53.099Z,8.50
2022-11-15T17:20:21.527Z,8.50
2022-11-15T17:22:47.945Z,8.50
2022-11-15T17:25:14.816Z,8.50
2022-11-15T17:27:41.268Z,8.30
2022-11-15T17:30:08.681Z,8.30
2022-11-15T17:32:38.603Z,8.30
2022-11-15T17:35:14.918Z,8.20
2022-11-15T17:37:42.099Z,8.10
2022-11-15T17:40:09.297Z,8.10
2022-11-15T17:42:35.824Z,8.00
2022-11-15T17:45:08.076Z,8.00
2022-11-15T17:47:35.949Z,7.90
2022-11-15T17:50:02.378Z,7.90
2022-11-15T17:52:28.796Z,8.00
2022-11-15T17:54:55.230Z,7.80
2022-11-15T17:57:21.634Z,7.70
2022-11-15T17:59:48.969Z,7.80
2022-11-15T18:02:15.473Z,7.70
2022-11-15T18:04:41.904Z,7.70
2022-11-15T18:07:08.398Z,7.60
2022-11-15T18:09:34.926Z,7.60
2022-11-15T18:12:01.482Z,7.50
2022-11-15T18:14:27.952Z,7.40
2022-11-15T18:16:55.046Z,7.40
2022-11-15T18:19:21.514Z,7.30
2022-11-15T18:21:57.036Z,7.30
2022-11-15T18:24:34.924Z,7.20
2022-11-15T18:27:02.335Z,7.20
2022-11-15T18:29:29.281Z,7.10
2022-11-15T18:31:56.158Z,7.10
2022-11-15T18:34:24.072Z,7.10
2022-11-15T18:36:52.411Z,7.00
2022-11-15T18:39:19.510Z,7.00
2022-11-15T18:41:46.829Z,6.90
2022-11-15T18:44:13.955Z,6.90
2022-11-15T18:46:42.020Z,7.00
2022-11-15T18:49:10.352Z,6.90
2022-11-15T18:51:42.052Z,7.00
2022-11-15T18:54:10.808Z,6.80
2022-11-15T18:56:38.687Z,6.80
2022-11-15T18:59:05.812Z,6.70
2022-11-15T19:01:35.026Z,6.60
2022-11-15T19:04:27.985Z,6.60
2022-11-15T19:06:54.817Z,6.60
2022-11-15T19:09:22.880Z,6.60
2022-11-15T19:11:51.381Z,6.60
2022-11-15T19:14:18.322Z,6.70
2022-11-15T19:16:50.014Z,6.70
2022-11-15T19:19:21.763Z,6.70
2022-11-15T19:21:48.400Z,6.80
2022-11-15T19:24:15.349Z,6.70
2022-11-15T19:26:41.851Z,6.90
2022-11-15T19:29:13.969Z,6.90
2022-11-15T19:31:40.424Z,6.80
2022-11-15T19:34:07.717Z,6.80
2022-11-15T19:36:36.486Z,6.70
2022-11-15T19:39:08.359Z,6.80
2022-11-15T19:41:36.491Z,6.80
2022-11-15T19:44:03.216Z,6.80
2022-11-15T19:46:29.688Z,6.90
2022-11-15T19:48:56.118Z,6.90
2022-11-15T19:51:24.830Z,6.90
2022-11-15T19:53:56.115Z,6.90
2022-11-15T19:56:22.891Z,7.00
2022-11-15T19:58:53.947Z,7.00
2022-11-15T20:01:23.293Z,7.00
2022-11-15T20:03:53.398Z,7.00
2022-11-15T20:06:22.630Z,7.00
2022-11-15T20:08:49.948Z,6.90
2022-11-15T20:11:17.194Z,6.90
2022-11-15T20:13:44.043Z,6.90
2022-11-15T20:16:16.593Z,6.90
2022-11-15T20:18:43.303Z,6.90
2022-11-15T20:21:10.071Z,7.00
2022-11-15T20:23:36.579Z,7.00
2022-11-15T20:26:03.024Z,7.00
2022-11-15T20:28:29.499Z,7.00
2022-11-15T20:30:58.336Z,7.00
2022-11-15T20:33:25.713Z,7.10
2022-11-15T20:35:53.026Z,7.00
2022-11-15T20:38:21.170Z,7.00
2022-11-15T20:40:49.091Z,7.00
2022-11-15T20:43:18.983Z,7.00
2022-11-15T20:46:38.167Z,6.90
2022-11-15T20:49:06.362Z,7.00
2022-11-15T20:51:32.878Z,6.90
2022-11-15T20:53:59.324Z,6.90
2022-11-15T20:56:25.778Z,6.90
2022-11-15T20:58:53.341Z,6.90
2022-11-15T21:01:23.823Z,6.80
2022-11-15T21:03:54.786Z,6.90
2022-11-15T21:06:22.530Z,6.80
2022-11-15T21:09:11.702Z,6.80
2022-11-15T21:11:56.569Z,6.80
2022-11-15T21:14:23.161Z,6.90
2022-11-15T21:16:49.824Z,6.80
2022-11-15T21:19:16.367Z,7.00
2022-11-15T21:21:42.785Z,6.90
2022-11-15T21:24:09.917Z,6.90
2022-11-15T21:26:36.902Z,6.90
2022-11-15T21:29:04.094Z,6.90
2022-11-15T21:31:31.898Z,6.90
2022-11-15T21:34:01.256Z,6.90
2022-11-15T21:36:27.711Z,6.90
2022-11-15T21:38:54.202Z,6.90
2022-11-15T21:41:20.855Z,7.00
2022-11-15T21:43:47.318Z,7.00
2022-11-15T21:46:13.862Z,7.00
2022-11-15T21:48:40.407Z,7.00
2022-11-15T21:51:09.932Z,7.00
2022-11-15T21:53:36.492Z,6.90
2022-11-15T21:56:04.027Z,6.80
2022-11-15T21:58:31.345Z,6.90
2022-11-15T22:01:17.002Z,6.90
2022-11-15T22:03:43.527Z,7.00
2022-11-15T22:06:16.014Z,7.00
2022-11-15T22:08:44.411Z,7.00
2022-11-15T22:11:11.020Z,7.00
2022-11-15T22:13:37.921Z,7.10
2022-11-15T22:16:04.474Z,7.00
2022-11-15T22:18:31.125Z,7.00
2022-11-15T22:21:00.297Z,7.10
2022-11-15T22:23:28.808Z,6.90
2022-11-15T22:25:55.993Z,7.00
2022-11-15T22:28:23.340Z,7.10
2022-11-15T22:30:51.624Z,7.10
2022-11-15T22:33:19.567Z,6.90
2022-11-15T22:35:46.672Z,6.80
2022-11-15T22:38:13.462Z,6.90
2022-11-15T22:40:40.310Z,6.90
2022-11-15T22:43:06.905Z,6.80
2022-11-15T22:45:33.686Z,6.80
2022-11-15T22:48:00.209Z,6.80
2022-11-15T22:50:26.677Z,6.80
2022-11-15T22:52:53.216Z,6.80
2022-11-15T22:55:19.748Z,6.70
2022-11-15T22:57:46.629Z,6.70
2022-11-15T23:00:15.616Z,6.70
2022-11-15T23:02:42.453Z,6.70
2022-11-15T23:05:09.432Z,6.70
2022-11-15T23:07:35.944Z,6.60
2022-11-15T23:10:21.139Z,6.70
2022-11-15T23:13:05.907Z,6.60
2022-11-15T23:15:52.377Z,6.50
2022-11-15T23:18:19.285Z,6.50
2022-11-15T23:20:46.096Z,6.40
2022-11-15T23:23:13.482Z,6.50
2022-11-15T23:25:40.056Z,6.50
2022-11-15T23:28:06.743Z,6.50
2022-11-15T23:30:55.526Z,6.50
2022-11-15T23:33:41.354Z,6.40
2022-11-15T23:36:07.979Z,6.40
2022-11-15T23:38:38.150Z,6.40
2022-11-15T23:41:05.573Z,6.60
2022-11-15T23:43:32.241Z,6.50
2022-11-15T23:46:01.000Z,6.50
2022-11-15T23:48:27.852Z,6.60
2022-11-15T23:50:54.615Z,6.60
2022-11-15T23:53:21.158Z,6.70
2022-11-15T23:56:06.884Z,6.60
2022-11-15T23:58:34.248Z,6.70
